Fort Assiniboine, Canada
Current Conditions -  °F | °C
As of 7:00 AM on Wednesday 26 Nov 2014 (Local Time) from CYZU Reporting Station
Light Snow Light Snow  
Wind Chill: 14°   Ceiling: 400
Heat Index: 14°   Visibility: 0.75mi
Dew Point: 12°   Wind: 2mph
Humidity: 93%   Direction: NA
Pressure: 30.13"   Gusts: NA
Location:  54.33°N, 114.77°W
Report Text: CYZU 261400Z VRB02KT 3/4SM -SN OVC004 M10/M11 A3013 RMK ST8 SLP256
Loading
Personal Weather Stations






























Interactive Weather Map New forecast layout! Learn more

10-Day Weather Forecast

Advertisements
Track Severe Weather on mobile